Time;durP1;ratioP1;P1;durP2;ratioP2;P2;SDS_P1;SDS_P2;PMS_P1;PMS_P2;Temp;Humidity;BMP_temperature;BMP_pressure;BME280_temperature;BME280_humidity;BME280_pressure;Samples;Min_cycle;Max_cycle;Signal;HPM_P1;HPM_P2
2022/11/16 00:00:21;;;;;;;;;;;8.50;51.00;;;;;;6127764;23;19901;-74
2022/11/16 00:02:50;;;;;;;;;;;8.60;87.40;;;;;;6127832;23;19936;-74
2022/11/16 00:05:17;;;;;;;;;;;8.50;52.00;;;;;;6126064;23;20039;-75
2022/11/16 00:07:43;;;;;;;;;;;8.60;51.40;;;;;;6127933;23;19901;-75
2022/11/16 00:10:10;;;;;;;;;;;8.50;50.80;;;;;;6127949;23;19932;-74
2022/11/16 00:12:36;;;;;;;;;;;8.60;50.10;;;;;;6126152;23;19908;-77
2022/11/16 00:15:01;;;;;;;;;;;8.40;32.60;;;;;;6127411;23;19901;-75
2022/11/16 00:17:27;;;;;;;;;;;8.40;47.10;;;;;;6127837;23;20402;-74
2022/11/16 00:19:52;;;;;;;;;;;8.40;59.20;;;;;;6127708;23;20343;-75
2022/11/16 00:22:18;;;;;;;;;;;8.40;60.60;;;;;;6127766;23;19901;-74
2022/11/16 00:24:43;;;;;;;;;;;8.40;70.50;;;;;;6127310;23;19919;-74
2022/11/16 00:27:09;;;;;;;;;;;8.40;95.70;;;;;;6127891;23;20317;-74
2022/11/16 00:29:35;;;;;;;;;;;8.40;92.70;;;;;;6127829;23;19905;-73
2022/11/16 00:32:00;;;;;;;;;;;8.40;76.40;;;;;;6127723;23;19910;-75
2022/11/16 00:34:26;;;;;;;;;;;8.40;70.90;;;;;;6127381;23;20272;-74
2022/11/16 00:36:51;;;;;;;;;;;8.40;67.60;;;;;;6127613;23;19908;-77
2022/11/16 00:39:17;;;;;;;;;;;8.40;70.00;;;;;;6125814;23;19927;-75
2022/11/16 00:41:43;;;;;;;;;;;8.40;76.70;;;;;;6127530;23;19951;-76
2022/11/16 00:44:09;;;;;;;;;;;8.30;57.40;;;;;;6127785;23;19936;-75
2022/11/16 00:46:36;;;;;;;;;;;8.30;57.70;;;;;;6127510;23;19913;-77
2022/11/16 00:49:02;;;;;;;;;;;8.30;91.20;;;;;;6127216;23;20224;-74
2022/11/16 00:51:28;;;;;;;;;;;8.30;78.80;;;;;;6128073;23;19901;-74
2022/11/16 00:53:53;;;;;;;;;;;8.30;62.30;;;;;;6127326;23;19905;-75
2022/11/16 00:56:19;;;;;;;;;;;8.20;67.80;;;;;;6127644;23;19935;-75
2022/11/16 00:58:44;;;;;;;;;;;8.20;77.70;;;;;;6127628;23;19912;-74
2022/11/16 01:01:10;;;;;;;;;;;8.20;88.50;;;;;;6127751;23;19901;-75
2022/11/16 01:03:36;;;;;;;;;;;8.20;94.80;;;;;;6127895;23;19943;-76
2022/11/16 01:06:09;;;;;;;;;;;8.30;99.90;;;;;;6127509;23;19900;-73
2022/11/16 01:08:38;;;;;;;;;;;8.30;99.90;;;;;;6127529;23;19929;-75
2022/11/16 01:13:48;;;;;;;;;;;8.30;99.90;;;;;;6127016;23;20320;-74
2022/11/16 01:16:15;;;;;;;;;;;8.40;99.40;;;;;;6127439;23;19901;-77
2022/11/16 01:18:40;;;;;;;;;;;8.50;99.90;;;;;;6127514;23;19900;-75
2022/11/16 01:21:06;;;;;;;;;;;8.60;99.90;;;;;;6127489;23;19947;-77
2022/11/16 01:23:32;;;;;;;;;;;8.70;99.90;;;;;;6126874;23;19908;-76
2022/11/16 01:26:00;;;;;;;;;;;8.80;99.90;;;;;;6127762;23;19901;-76
2022/11/16 01:28:29;;;;;;;;;;;8.80;99.90;;;;;;6128907;23;19905;-75
2022/11/16 01:30:55;;;;;;;;;;;8.80;99.90;;;;;;6129216;23;19901;-75
2022/11/16 01:33:20;;;;;;;;;;;8.80;99.90;;;;;;6129170;23;20347;-74
2022/11/16 01:35:46;;;;;;;;;;;8.90;99.90;;;;;;6129106;23;19900;-75
2022/11/16 01:38:12;;;;;;;;;;;8.90;99.90;;;;;;6129212;23;19901;-75
2022/11/16 01:40:37;;;;;;;;;;;8.90;99.90;;;;;;6128959;23;19907;-75
2022/11/16 01:43:10;;;;;;;;;;;9.00;99.90;;;;;;6129140;23;19900;-74
2022/11/16 01:45:42;;;;;;;;;;;9.00;99.90;;;;;;6129459;23;19905;-74
2022/11/16 01:48:16;;;;;;;;;;;9.10;99.90;;;;;;6129181;23;19924;-75
2022/11/16 01:50:42;;;;;;;;;;;9.00;64.70;;;;;;6129140;23;19901;-75
2022/11/16 01:53:09;;;;;;;;;;;9.00;82.40;;;;;;6127394;23;19905;-76
2022/11/16 01:55:36;;;;;;;;;;;9.10;93.10;;;;;;6129097;23;19905;-76
2022/11/16 01:58:01;;;;;;;;;;;9.10;76.50;;;;;;6128818;23;19956;-76
2022/11/16 02:00:27;;;;;;;;;;;9.10;22.70;;;;;;6128939;23;19901;-75
2022/11/16 02:02:53;;;;;;;;;;;9.10;15.60;;;;;;6128979;23;20221;-74
2022/11/16 02:05:20;;;;;;;;;;;9.20;13.10;;;;;;6128907;23;19979;-76
2022/11/16 02:10:51;;;;;;;;;;;9.20;1.00;;;;;;6128486;23;19956;-75
2022/11/16 02:13:27;;;;;;;;;;;9.20;1.00;;;;;;6128707;23;19905;-76
2022/11/16 02:16:15;;;;;;;;;;;9.20;1.00;;;;;;6127023;23;20364;-76
2022/11/16 02:18:41;;;;;;;;;;;9.30;1.00;;;;;;6100519;23;19983;-75
2022/11/16 02:21:06;;;;;;;;;;;9.30;1.00;;;;;;6128787;23;19943;-75
2022/11/16 02:23:41;;;;;;;;;;;9.40;1.00;;;;;;6128057;23;19900;-76
2022/11/16 02:26:17;;;;;;;;;;;9.40;1.00;;;;;;6128875;23;19955;-73
2022/11/16 02:29:01;;;;;;;;;;;9.40;1.00;;;;;;6128737;23;19901;-74
2022/11/16 02:31:30;;;;;;;;;;;9.40;1.00;;;;;;6128959;23;19901;-74
2022/11/16 02:33:55;;;;;;;;;;;9.40;1.00;;;;;;6128505;23;19909;-74
2022/11/16 02:36:22;;;;;;;;;;;9.50;1.00;;;;;;6128655;23;19979;-75
2022/11/16 02:39:08;;;;;;;;;;;9.50;1.00;;;;;;6128232;23;20221;-75
2022/11/16 02:41:36;;;;;;;;;;;9.70;1.00;;;;;;6126658;23;20328;-75
2022/11/16 02:44:05;;;;;;;;;;;9.70;1.00;;;;;;6128834;23;19907;-74
2022/11/16 02:46:35;;;;;;;;;;;9.60;1.00;;;;;;6128648;23;19901;-75
2022/11/16 02:49:02;;;;;;;;;;;9.60;1.00;;;;;;6128397;23;19908;-75
2022/11/16 02:51:29;;;;;;;;;;;9.50;1.00;;;;;;6126941;23;20325;-75
2022/11/16 02:54:13;;;;;;;;;;;9.50;1.00;;;;;;6128398;23;19905;-75
2022/11/16 02:56:59;;;;;;;;;;;9.50;1.00;;;;;;6128634;23;19907;-75
2022/11/16 02:59:27;;;;;;;;;;;9.40;1.00;;;;;;6098120;23;19901;-75
2022/11/16 03:02:13;;;;;;;;;;;9.40;1.00;;;;;;6128470;23;19901;-75
2022/11/16 03:04:47;;;;;;;;;;;9.40;1.00;;;;;;6117527;23;19901;-74
2022/11/16 03:07:14;;;;;;;;;;;9.40;1.00;;;;;;6128713;23;19901;-76
2022/11/16 03:09:40;;;;;;;;;;;9.30;1.00;;;;;;6128295;23;19908;-74
2022/11/16 03:12:08;;;;;;;;;;;9.30;1.00;;;;;;6128333;23;19905;-75
2022/11/16 03:14:37;;;;;;;;;;;9.30;1.00;;;;;;6128164;23;20279;-75
2022/11/16 03:17:05;;;;;;;;;;;9.40;1.00;;;;;;6127986;23;19901;-75
2022/11/16 03:19:54;;;;;;;;;;;9.50;4.90;;;;;;6128230;23;19905;-75
2022/11/16 03:22:40;;;;;;;;;;;9.60;1.00;;;;;;6119779;23;19901;-76
2022/11/16 03:25:06;;;;;;;;;;;9.70;1.00;;;;;;6116634;23;19917;-75
2022/11/16 03:27:31;;;;;;;;;;;9.70;1.00;;;;;;6128208;23;19973;-74
2022/11/16 03:30:03;;;;;;;;;;;9.80;1.00;;;;;;6128141;23;20236;-77
2022/11/16 03:32:31;;;;;;;;;;;9.70;1.00;;;;;;6127881;23;19967;-75
2022/11/16 03:35:05;;;;;;;;;;;9.70;1.00;;;;;;6127947;23;19908;-76
2022/11/16 03:37:32;;;;;;;;;;;9.70;1.00;;;;;;6127817;23;19912;-75
2022/11/16 03:39:59;;;;;;;;;;;9.70;1.00;;;;;;6128000;23;19924;-76
2022/11/16 03:42:26;;;;;;;;;;;9.70;10.20;;;;;;6128021;23;19905;-76
2022/11/16 03:44:52;;;;;;;;;;;9.80;20.10;;;;;;6127877;23;19900;-77
2022/11/16 03:47:18;;;;;;;;;;;9.80;25.90;;;;;;6127975;23;19901;-75
2022/11/16 03:49:44;;;;;;;;;;;9.80;17.40;;;;;;6128462;23;20224;-75
2022/11/16 03:52:10;;;;;;;;;;;9.70;12.40;;;;;;6127857;23;19901;-76
2022/11/16 03:54:36;;;;;;;;;;;9.70;15.90;;;;;;6126151;23;20228;-75
2022/11/16 03:57:01;;;;;;;;;;;9.60;9.30;;;;;;6127976;23;19948;-75
2022/11/16 03:59:27;;;;;;;;;;;9.60;42.60;;;;;;6126328;23;20228;-75
2022/11/16 04:01:52;;;;;;;;;;;9.60;40.60;;;;;;6127754;23;19932;-75
2022/11/16 04:26:11;;;;;;;;;;;9.50;1.00;;;;;;6127371;23;20260;-74
2022/11/16 04:28:38;;;;;;;;;;;9.50;1.00;;;;;;6127561;23;19901;-75
2022/11/16 04:39:17;;;;;;;;;;;9.50;1.00;;;;;;6127338;23;19908;-74
2022/11/16 04:47:05;;;;;;;;;;;9.40;1.00;;;;;;6127355;23;19907;-74
2022/11/16 04:47:12;;;;;;;;;;;9.50;1.00;;;;;;6127167;23;19901;-74
2022/11/16 04:49:37;;;;;;;;;;;9.60;1.00;;;;;;6127572;23;19979;-74
2022/11/16 04:52:03;;;;;;;;;;;9.70;1.00;;;;;;6127602;23;19908;-75
2022/11/16 04:54:28;;;;;;;;;;;9.80;1.00;;;;;;6127538;23;19988;-74
2022/11/16 04:56:54;;;;;;;;;;;9.80;1.00;;;;;;6127428;23;19901;-75
2022/11/16 04:59:19;;;;;;;;;;;9.90;1.00;;;;;;6127622;23;19901;-76
2022/11/16 05:04:29;;;;;;;;;;;10.10;1.00;;;;;;6128869;23;19907;-75
2022/11/16 05:06:55;;;;;;;;;;;10.10;1.00;;;;;;6129836;23;19932;-74
2022/11/16 05:09:20;;;;;;;;;;;10.20;1.00;;;;;;6129870;23;19900;-74
2022/11/16 05:11:46;;;;;;;;;;;10.20;1.00;;;;;;6129529;23;20316;-75
2022/11/16 05:14:11;;;;;;;;;;;10.20;1.00;;;;;;6129412;23;19987;-75
2022/11/16 05:16:37;;;;;;;;;;;10.20;1.00;;;;;;6129458;23;19900;-76
2022/11/16 05:21:47;;;;;;;;;;;10.10;1.00;;;;;;6128993;23;19987;-76
2022/11/16 05:26:56;;;;;;;;;;;10.10;1.00;;;;;;6129156;23;19972;-76
2022/11/16 05:29:22;;;;;;;;;;;10.10;1.00;;;;;;6129403;23;20320;-75
2022/11/16 05:31:47;;;;;;;;;;;10.10;1.00;;;;;;6129147;23;19928;-75
2022/11/16 05:34:13;;;;;;;;;;;10.10;1.00;;;;;;6129121;23;19952;-75
2022/11/16 05:36:39;;;;;;;;;;;10.10;1.00;;;;;;6129252;23;20240;-75
2022/11/16 05:39:04;;;;;;;;;;;10.00;1.00;;;;;;6129461;23;20244;-77
2022/11/16 05:41:30;;;;;;;;;;;10.00;1.00;;;;;;6129121;23;19901;-77
2022/11/16 05:43:56;;;;;;;;;;;10.00;1.00;;;;;;6129267;23;20240;-76
2022/11/16 05:46:22;;;;;;;;;;;10.00;1.00;;;;;;6128971;23;19923;-74
2022/11/16 05:48:48;;;;;;;;;;;10.00;99.90;;;;;;6129250;23;19948;-76
2022/11/16 05:51:13;;;;;;;;;;;10.00;99.90;;;;;;6129039;23;19979;-75
2022/11/16 05:53:39;;;;;;;;;;;10.00;99.90;;;;;;6127437;23;20328;-76
2022/11/16 05:56:05;;;;;;;;;;;10.00;99.90;;;;;;6129037;23;19951;-76
2022/11/16 05:58:30;;;;;;;;;;;10.00;99.90;;;;;;6129030;23;20276;-76
2022/11/16 06:00:57;;;;;;;;;;;10.00;99.90;;;;;;6128920;23;19936;-76
2022/11/16 06:03:22;;;;;;;;;;;10.00;99.90;;;;;;6129224;23;19901;-74
2022/11/16 06:05:52;;;;;;;;;;;9.90;99.90;;;;;;6128938;23;19940;-74
2022/11/16 06:08:17;;;;;;;;;;;9.90;99.90;;;;;;6127017;23;19984;-74
2022/11/16 06:10:43;;;;;;;;;;;9.80;99.90;;;;;;6129105;23;19901;-74
2022/11/16 06:13:09;;;;;;;;;;;9.70;99.90;;;;;;6128243;23;19941;-76
2022/11/16 06:15:38;;;;;;;;;;;9.60;99.90;;;;;;6128275;23;20017;-74
2022/11/16 06:18:04;;;;;;;;;;;9.60;99.90;;;;;;6128757;23;19901;-74
2022/11/16 06:20:29;;;;;;;;;;;9.50;99.90;;;;;;6128711;23;19901;-75
2022/11/16 06:22:55;;;;;;;;;;;9.40;99.90;;;;;;6128771;23;19905;-76
2022/11/16 06:25:20;;;;;;;;;;;9.40;99.90;;;;;;6128139;23;19917;-77
2022/11/16 06:27:46;;;;;;;;;;;9.40;99.90;;;;;;6128778;23;20239;-77
2022/11/16 06:30:11;;;;;;;;;;;9.40;1.00;;;;;;6128579;23;19907;-77
2022/11/16 06:32:37;;;;;;;;;;;9.40;99.90;;;;;;6128725;23;19933;-76
2022/11/16 06:35:03;;;;;;;;;;;9.40;99.90;;;;;;6129661;23;19901;-76
2022/11/16 06:37:29;;;;;;;;;;;9.40;1.00;;;;;;6128944;23;19900;-77
2022/11/16 06:39:54;;;;;;;;;;;9.40;99.90;;;;;;6128756;23;19908;-76
2022/11/16 06:42:20;;;;;;;;;;;9.40;99.90;;;;;;6128500;23;19900;-78
2022/11/16 06:44:45;;;;;;;;;;;9.40;99.90;;;;;;6128508;23;20354;-76
2022/11/16 06:47:11;;;;;;;;;;;9.50;99.90;;;;;;6128889;23;19908;-78
2022/11/16 06:49:37;;;;;;;;;;;9.40;99.90;;;;;;6128643;23;19901;-76
2022/11/16 06:52:02;;;;;;;;;;;9.40;99.90;;;;;;6128520;23;20007;-76
2022/11/16 06:54:28;;;;;;;;;;;9.40;99.90;;;;;;6128413;23;19911;-75
2022/11/16 06:56:53;;;;;;;;;;;9.40;99.90;;;;;;6128546;23;20283;-77
2022/11/16 06:59:19;;;;;;;;;;;9.40;99.90;;;;;;6128668;23;19943;-76
2022/11/16 07:01:44;;;;;;;;;;;9.40;99.90;;;;;;6128343;23;19900;-76
2022/11/16 07:04:10;;;;;;;;;;;9.40;99.90;;;;;;6128331;23;19901;-76
2022/11/16 07:06:39;;;;;;;;;;;9.40;99.90;;;;;;6128532;23;19927;-76
2022/11/16 07:09:05;;;;;;;;;;;9.40;99.90;;;;;;6128543;23;19908;-76
2022/11/16 07:11:31;;;;;;;;;;;9.50;99.90;;;;;;6128510;23;19955;-77
2022/11/16 07:13:56;;;;;;;;;;;9.50;99.90;;;;;;6128172;23;19905;-77
2022/11/16 07:16:22;;;;;;;;;;;9.50;99.90;;;;;;6128343;23;19901;-75
2022/11/16 07:18:47;;;;;;;;;;;9.60;99.90;;;;;;6128023;23;19908;-75
2022/11/16 07:21:14;;;;;;;;;;;9.60;99.90;;;;;;6126657;23;19968;-77
2022/11/16 07:23:40;;;;;;;;;;;9.60;99.90;;;;;;6127722;23;19975;-77
2022/11/16 07:26:06;;;;;;;;;;;9.70;99.90;;;;;;6128498;23;19908;-76
2022/11/16 07:28:32;;;;;;;;;;;9.80;99.90;;;;;;6127972;23;20324;-75
2022/11/16 07:31:01;;;;;;;;;;;9.80;99.90;;;;;;6128075;23;19952;-75
2022/11/16 07:33:27;;;;;;;;;;;9.90;99.90;;;;;;6127927;23;20342;-75
2022/11/16 07:35:52;;;;;;;;;;;10.00;99.90;;;;;;6128493;23;19937;-76
2022/11/16 07:38:18;;;;;;;;;;;10.00;3.40;;;;;;6127993;23;19900;-75
2022/11/16 07:40:44;;;;;;;;;;;10.00;99.90;;;;;;6128062;23;19902;-76
2022/11/16 07:43:11;;;;;;;;;;;10.00;93.70;;;;;;6127787;23;19908;-75
2022/11/16 07:45:37;;;;;;;;;;;10.10;1.00;;;;;;6128132;23;19901;-77
2022/11/16 07:48:02;;;;;;;;;;;10.20;1.00;;;;;;6128356;23;19901;-76
2022/11/16 07:50:28;;;;;;;;;;;10.10;47.20;;;;;;6127918;23;19939;-75
2022/11/16 07:52:54;;;;;;;;;;;10.10;57.10;;;;;;6128023;23;19905;-75
2022/11/16 07:55:20;;;;;;;;;;;10.10;1.00;;;;;;6127831;23;20300;-76
2022/11/16 07:57:45;;;;;;;;;;;10.20;26.40;;;;;;6127819;23;19928;-78
2022/11/16 08:00:11;;;;;;;;;;;10.30;1.00;;;;;;6127858;23;20329;-76
2022/11/16 08:02:37;;;;;;;;;;;10.40;1.00;;;;;;6127966;23;19901;-77
2022/11/16 08:05:03;;;;;;;;;;;10.50;1.00;;;;;;6127790;23;19927;-77
2022/11/16 08:07:28;;;;;;;;;;;10.70;1.00;;;;;;6127841;23;19952;-76
2022/11/16 08:09:54;;;;;;;;;;;10.70;1.00;;;;;;6127817;23;19901;-77
2022/11/16 08:12:19;;;;;;;;;;;10.70;1.00;;;;;;6127718;23;19940;-77
2022/11/16 08:14:45;;;;;;;;;;;10.80;1.00;;;;;;6127712;23;19908;-76
2022/11/16 08:17:11;;;;;;;;;;;10.80;1.00;;;;;;6127819;23;19924;-77
2022/11/16 08:19:38;;;;;;;;;;;10.80;99.90;;;;;;6127654;23;19947;-76
2022/11/16 08:22:03;;;;;;;;;;;10.80;1.00;;;;;;6127422;23;20416;-77
2022/11/16 08:24:29;;;;;;;;;;;10.90;99.90;;;;;;6127419;23;19913;-77
2022/11/16 08:26:57;;;;;;;;;;;11.00;1.00;;;;;;6127667;23;19901;-77
2022/11/16 08:29:23;;;;;;;;;;;11.10;1.00;;;;;;6128100;23;19929;-76
2022/11/16 08:31:48;;;;;;;;;;;11.10;99.90;;;;;;6127596;23;19908;-76
2022/11/16 08:34:14;;;;;;;;;;;11.10;1.00;;;;;;6127683;23;19905;-77
2022/11/16 08:36:40;;;;;;;;;;;11.10;1.00;;;;;;6125831;23;19901;-76
2022/11/16 08:39:05;;;;;;;;;;;11.20;99.90;;;;;;6127583;23;19905;-77
2022/11/16 08:41:31;;;;;;;;;;;11.30;99.90;;;;;;6127995;23;20286;-78
2022/11/16 08:43:58;;;;;;;;;;;11.40;99.90;;;;;;6127470;23;19901;-77
2022/11/16 08:46:23;;;;;;;;;;;12.30;99.90;;;;;;6127629;23;19901;-80
2022/11/16 08:48:53;;;;;;;;;;;13.20;99.90;;;;;;6127765;23;19901;-79
2022/11/16 08:51:20;;;;;;;;;;;13.50;99.90;;;;;;6127487;23;19907;-76
2022/11/16 08:53:46;;;;;;;;;;;13.60;99.90;;;;;;6127286;23;19909;-77
2022/11/16 08:56:12;;;;;;;;;;;13.40;99.90;;;;;;6127445;23;19901;-77
2022/11/16 08:58:38;;;;;;;;;;;13.40;99.90;;;;;;6127541;23;19979;-76
2022/11/16 09:01:08;;;;;;;;;;;13.40;99.90;;;;;;6127509;23;19956;-76
2022/11/16 09:03:35;;;;;;;;;;;13.20;99.90;;;;;;6128165;23;19907;-77
2022/11/16 09:06:01;;;;;;;;;;;13.00;99.90;;;;;;6127250;23;19901;-74
2022/11/16 09:08:27;;;;;;;;;;;13.30;99.90;;;;;;6127825;23;19900;-76
2022/11/16 09:10:52;;;;;;;;;;;13.80;99.90;;;;;;6127499;23;19936;-77
2022/11/16 09:13:18;;;;;;;;;;;14.40;99.90;;;;;;6127381;23;19956;-77
2022/11/16 09:15:43;;;;;;;;;;;14.30;99.90;;;;;;6127539;23;19901;-76
2022/11/16 09:18:09;;;;;;;;;;;14.20;99.90;;;;;;6126049;23;19900;-77
2022/11/16 09:20:35;;;;;;;;;;;14.20;99.90;;;;;;6127491;23;20071;-75
2022/11/16 09:23:00;;;;;;;;;;;13.80;99.90;;;;;;6127571;23;19909;-76
2022/11/16 09:25:26;;;;;;;;;;;13.30;99.90;;;;;;6127337;23;19959;-77
2022/11/16 09:27:53;;;;;;;;;;;13.10;99.90;;;;;;6127474;23;19923;-75
2022/11/16 09:30:19;;;;;;;;;;;12.90;99.90;;;;;;6127403;23;19900;-76
2022/11/16 09:32:44;;;;;;;;;;;12.60;99.90;;;;;;6127168;23;20276;-77
2022/11/16 09:35:10;;;;;;;;;;;12.50;99.90;;;;;;6127310;23;19901;-75
2022/11/16 09:37:35;;;;;;;;;;;12.40;99.90;;;;;;6127408;23;20333;-76
2022/11/16 09:40:01;;;;;;;;;;;12.40;99.90;;;;;;6127665;23;19972;-76
2022/11/16 09:42:30;;;;;;;;;;;12.30;99.90;;;;;;6127682;23;19901;-76
2022/11/16 09:45:11;;;;;;;;;;;12.10;99.90;;;;;;6125844;23;19951;-76
2022/11/16 09:47:37;;;;;;;;;;;12.10;99.90;;;;;;6127350;23;19924;-76
2022/11/16 09:50:04;;;;;;;;;;;12.10;99.90;;;;;;6128803;23;19908;-75
2022/11/16 09:52:35;;;;;;;;;;;11.70;1.00;;;;;;6127372;23;19986;-77
2022/11/16 09:55:05;;;;;;;;;;;11.50;1.00;;;;;;6127361;23;19912;-77
2022/11/16 09:57:35;;;;;;;;;;;11.40;6.50;;;;;;6129168;23;20340;-77
2022/11/16 10:00:10;;;;;;;;;;;11.40;99.90;;;;;;6129044;23;19924;-77
2022/11/16 10:02:39;;;;;;;;;;;11.40;99.90;;;;;;6128801;23;19901;-78
2022/11/16 10:05:14;;;;;;;;;;;11.40;99.90;;;;;;6128850;23;19901;-77
2022/11/16 10:07:44;;;;;;;;;;;11.40;99.90;;;;;;6129065;23;19901;-78
2022/11/16 10:10:14;;;;;;;;;;;11.40;99.90;;;;;;6128734;23;19948;-77
2022/11/16 10:12:42;;;;;;;;;;;11.40;99.90;;;;;;6128701;23;20240;-78
2022/11/16 10:15:17;;;;;;;;;;;11.50;99.90;;;;;;6128959;23;19901;-76
2022/11/16 10:17:49;;;;;;;;;;;11.60;99.90;;;;;;6128908;23;19901;-76
2022/11/16 10:20:20;;;;;;;;;;;11.60;99.90;;;;;;6128828;23;20284;-77
2022/11/16 10:23:04;;;;;;;;;;;11.70;99.90;;;;;;6128838;23;19955;-76
2022/11/16 10:25:36;;;;;;;;;;;11.80;99.90;;;;;;6128057;23;19913;-76
2022/11/16 10:28:08;;;;;;;;;;;11.80;99.90;;;;;;6128901;23;20383;-78
2022/11/16 10:30:37;;;;;;;;;;;11.90;99.90;;;;;;6128628;23;19901;-77
2022/11/16 10:33:06;;;;;;;;;;;11.90;99.90;;;;;;6128710;23;19904;-75
2022/11/16 10:35:39;;;;;;;;;;;11.90;99.90;;;;;;6129124;23;19908;-76
2022/11/16 10:38:26;;;;;;;;;;;11.90;99.90;;;;;;6129209;23;19908;-76
2022/11/16 10:40:55;;;;;;;;;;;11.90;99.90;;;;;;6128717;23;19988;-75
2022/11/16 10:43:25;;;;;;;;;;;11.90;99.90;;;;;;6128551;23;19900;-79
2022/11/16 10:45:50;;;;;;;;;;;11.80;99.90;;;;;;6129156;23;19983;-77
2022/11/16 10:48:22;;;;;;;;;;;11.90;99.90;;;;;;6128534;23;19905;-75
2022/11/16 10:50:49;;;;;;;;;;;11.90;99.90;;;;;;6128477;23;19901;-78
2022/11/16 10:53:24;;;;;;;;;;;11.90;99.90;;;;;;6128305;23;19912;-76
2022/11/16 10:56:01;;;;;;;;;;;12.00;99.90;;;;;;6129115;23;19909;-75
2022/11/16 10:58:47;;;;;;;;;;;11.90;99.90;;;;;;6128654;23;19901;-75
2022/11/16 11:01:12;;;;;;;;;;;12.00;1.00;;;;;;6128451;23;19901;-78
2022/11/16 11:03:38;;;;;;;;;;;12.20;99.90;;;;;;6128233;23;19908;-76
2022/11/16 11:06:03;;;;;;;;;;;12.40;99.90;;;;;;6128460;23;19936;-76
2022/11/16 11:08:29;;;;;;;;;;;12.50;99.90;;;;;;6128508;23;19901;-76
2022/11/16 11:11:02;;;;;;;;;;;12.50;99.90;;;;;;6128165;23;19901;-76
2022/11/16 11:13:27;;;;;;;;;;;12.40;99.90;;;;;;6126406;23;20320;-76
2022/11/16 11:16:12;;;;;;;;;;;12.40;99.90;;;;;;6128651;23;19971;-76
2022/11/16 11:18:38;;;;;;;;;;;12.40;99.90;;;;;;6128508;23;19928;-75
2022/11/16 11:21:06;;;;;;;;;;;12.50;99.90;;;;;;6126869;23;19976;-76
2022/11/16 11:23:44;;;;;;;;;;;12.50;99.90;;;;;;6128196;23;20383;-75
2022/11/16 11:26:24;;;;;;;;;;;12.50;99.90;;;;;;6128188;23;19928;-75
2022/11/16 11:28:53;;;;;;;;;;;12.50;99.90;;;;;;6128210;23;19908;-78
2022/11/16 11:31:24;;;;;;;;;;;12.60;99.90;;;;;;6126083;23;19905;-76
2022/11/16 11:33:50;;;;;;;;;;;12.60;99.90;;;;;;6128301;23;19936;-76
2022/11/16 11:36:37;;;;;;;;;;;12.70;99.90;;;;;;6128554;23;19905;-75
2022/11/16 11:39:11;;;;;;;;;;;12.60;99.90;;;;;;6127895;23;19901;-75
2022/11/16 11:41:39;;;;;;;;;;;12.50;99.90;;;;;;6128123;23;19901;-76
2022/11/16 11:44:05;;;;;;;;;;;12.50;99.90;;;;;;6127970;23;19928;-75
2022/11/16 11:46:39;;;;;;;;;;;12.40;99.90;;;;;;6128279;23;19937;-76
2022/11/16 11:49:17;;;;;;;;;;;12.50;99.90;;;;;;6128069;23;19952;-77
2022/11/16 11:51:45;;;;;;;;;;;12.40;99.90;;;;;;6127938;23;19901;-76
2022/11/16 11:54:32;;;;;;;;;;;12.40;99.90;;;;;;6126246;23;19905;-77
2022/11/16 11:56:59;;;;;;;;;;;12.30;99.90;;;;;;6128157;23;19908;-76
2022/11/16 11:59:25;;;;;;;;;;;12.20;99.90;;;;;;6127979;23;19905;-78
2022/11/16 12:01:54;;;;;;;;;;;12.20;99.90;;;;;;6127844;23;20283;-78
2022/11/16 12:04:39;;;;;;;;;;;12.10;99.90;;;;;;6127676;23;20340;-77
2022/11/16 12:07:23;;;;;;;;;;;12.10;1.00;;;;;;6128151;23;19901;-77
2022/11/16 12:09:55;;;;;;;;;;;12.10;1.00;;;;;;6127822;23;19904;-78
2022/11/16 12:12:53;;;;;;;;;;;12.00;1.00;;;;;;6127705;23;19904;-77
2022/11/16 12:15:37;;;;;;;;;;;12.00;1.00;;;;;;6095022;23;19904;-78
2022/11/16 12:18:05;;;;;;;;;;;12.10;1.00;;;;;;6127717;23;19901;-79
2022/11/16 12:20:54;;;;;;;;;;;12.20;1.00;;;;;;6128775;23;19960;-76
2022/11/16 12:23:38;;;;;;;;;;;12.20;1.00;;;;;;6127703;23;20316;-79
2022/11/16 12:26:03;;;;;;;;;;;12.30;1.00;;;;;;6127202;23;19912;-77
2022/11/16 12:28:53;;;;;;;;;;;12.40;1.00;;;;;;6127789;23;19951;-76
2022/11/16 12:31:26;;;;;;;;;;;12.80;1.00;;;;;;6128055;23;20243;-76
2022/11/16 12:33:51;;;;;;;;;;;13.10;1.00;;;;;;6127329;23;19911;-82
2022/11/16 12:36:26;;;;;;;;;;;13.20;99.90;;;;;;6126085;23;20273;-80
2022/11/16 12:39:03;;;;;;;;;;;13.00;99.90;;;;;;6127593;23;19931;-78
2022/11/16 12:41:38;;;;;;;;;;;12.90;99.90;;;;;;6127936;23;19901;-79
2022/11/16 12:44:18;;;;;;;;;;;13.00;99.90;;;;;;6127606;23;19901;-80
2022/11/16 12:46:49;;;;;;;;;;;13.00;1.00;;;;;;6127859;23;19901;-79
2022/11/16 12:49:15;;;;;;;;;;;13.00;1.00;;;;;;6127659;23;19901;-80
2022/11/16 12:51:48;;;;;;;;;;;13.00;1.00;;;;;;6125972;23;19955;-80
2022/11/16 12:54:19;;;;;;;;;;;12.80;1.00;;;;;;6127588;23;19911;-80
2022/11/16 12:57:05;;;;;;;;;;;12.60;1.00;;;;;;6127487;23;20047;-79
2022/11/16 12:59:42;;;;;;;;;;;12.60;1.00;;;;;;6127669;23;19983;-79
2022/11/16 13:02:08;;;;;;;;;;;12.60;1.00;;;;;;6127435;23;19932;-79
2022/11/16 13:04:36;;;;;;;;;;;12.50;1.00;;;;;;6127193;23;19908;-80
2022/11/16 13:07:05;;;;;;;;;;;12.30;1.00;;;;;;6128170;23;19908;-80
2022/11/16 13:09:36;;;;;;;;;;;12.30;29.40;;;;;;6125791;23;19905;-83
2022/11/16 13:12:04;;;;;;;;;;;12.20;48.10;;;;;;6127913;23;19975;-81
2022/11/16 13:14:35;;;;;;;;;;;12.20;54.60;;;;;;6127299;23;20343;-79
2022/11/16 13:17:02;;;;;;;;;;;12.30;73.00;;;;;;6127680;23;19907;-78
2022/11/16 13:19:27;;;;;;;;;;;12.40;90.10;;;;;;6127709;23;19901;-80
2022/11/16 13:22:19;;;;;;;;;;;12.50;96.60;;;;;;6127491;23;19955;-80
2022/11/16 13:24:48;;;;;;;;;;;12.50;99.90;;;;;;6125593;23;19991;-82
2022/11/16 13:27:13;;;;;;;;;;;12.40;99.90;;;;;;6129345;23;19900;-80
2022/11/16 13:30:05;;;;;;;;;;;12.40;99.90;;;;;;6129668;23;19952;-80
2022/11/16 13:32:30;;;;;;;;;;;12.40;99.90;;;;;;6106239;23;19901;-81
2022/11/16 13:34:57;;;;;;;;;;;12.30;99.90;;;;;;6128745;23;20328;-80
2022/11/16 13:37:38;;;;;;;;;;;12.20;99.90;;;;;;6129138;23;19908;-80
2022/11/16 13:40:03;;;;;;;;;;;12.20;99.90;;;;;;6129133;23;19908;-78
2022/11/16 13:42:30;;;;;;;;;;;12.10;99.90;;;;;;6129321;23;19900;-79
2022/11/16 13:45:28;;;;;;;;;;;12.10;99.90;;;;;;6129306;23;19904;-79
2022/11/16 13:47:55;;;;;;;;;;;12.00;99.90;;;;;;6095786;23;19979;-79
2022/11/16 13:50:22;;;;;;;;;;;12.10;99.90;;;;;;6129118;23;19900;-78
2022/11/16 13:52:49;;;;;;;;;;;12.10;99.90;;;;;;6128949;23;19900;-78
2022/11/16 13:55:25;;;;;;;;;;;12.10;99.90;;;;;;6129155;23;19954;-78
2022/11/16 13:57:52;;;;;;;;;;;12.10;99.90;;;;;;6129017;23;19900;-79
2022/11/16 14:00:24;;;;;;;;;;;12.20;99.90;;;;;;6128998;23;20243;-79
2022/11/16 14:03:09;;;;;;;;;;;12.20;99.90;;;;;;6129454;23;19904;-79
2022/11/16 14:05:40;;;;;;;;;;;12.20;99.90;;;;;;6127144;23;19900;-80
2022/11/16 14:08:18;;;;;;;;;;;12.20;99.90;;;;;;6128892;23;19901;-78
2022/11/16 14:10:43;;;;;;;;;;;12.20;99.90;;;;;;6128662;23;20320;-81
2022/11/16 14:13:27;;;;;;;;;;;12.30;99.90;;;;;;6129001;23;19905;-80
2022/11/16 14:16:12;;;;;;;;;;;12.30;99.90;;;;;;6128921;23;19905;-80
2022/11/16 14:18:38;;;;;;;;;;;12.40;99.90;;;;;;6128786;23;19901;-80
2022/11/16 14:21:13;;;;;;;;;;;12.40;99.90;;;;;;6128748;23;19975;-79
2022/11/16 14:23:57;;;;;;;;;;;12.50;99.90;;;;;;6129091;23;19901;-78
2022/11/16 14:26:26;;;;;;;;;;;12.60;99.90;;;;;;6128871;23;19913;-78
2022/11/16 14:29:02;;;;;;;;;;;12.70;99.90;;;;;;6128916;23;19939;-78
2022/11/16 14:31:45;;;;;;;;;;;12.70;99.90;;;;;;6128833;23;19901;-79
2022/11/16 14:34:15;;;;;;;;;;;12.80;99.90;;;;;;6128332;23;19912;-79
2022/11/16 14:36:42;;;;;;;;;;;12.80;99.90;;;;;;6128718;23;19928;-79
2022/11/16 14:39:16;;;;;;;;;;;12.80;99.90;;;;;;6128439;23;19901;-80
2022/11/16 14:41:43;;;;;;;;;;;12.80;99.90;;;;;;6128840;23;20291;-78
2022/11/16 14:44:09;;;;;;;;;;;12.90;99.90;;;;;;6128562;23;19940;-80
2022/11/16 14:46:35;;;;;;;;;;;13.10;99.90;;;;;;6128734;23;19901;-79
2022/11/16 14:49:01;;;;;;;;;;;13.20;99.90;;;;;;6128539;23;19901;-82
2022/11/16 14:51:40;;;;;;;;;;;13.30;99.90;;;;;;6128710;23;19907;-80
2022/11/16 14:54:14;;;;;;;;;;;13.30;99.90;;;;;;6128448;23;19956;-80
2022/11/16 14:57:02;;;;;;;;;;;13.30;99.90;;;;;;6128945;23;19923;-80
2022/11/16 14:59:28;;;;;;;;;;;13.30;99.90;;;;;;6128345;23;19908;-79
2022/11/16 15:01:54;;;;;;;;;;;13.40;99.90;;;;;;6128725;23;19939;-78
2022/11/16 15:04:20;;;;;;;;;;;13.40;99.90;;;;;;6128434;23;19904;-79
2022/11/16 15:06:46;;;;;;;;;;;13.50;99.90;;;;;;6128191;23;20240;-79
2022/11/16 15:09:28;;;;;;;;;;;13.60;99.90;;;;;;6126680;23;19908;-79
2022/11/16 15:14:49;;;;;;;;;;;13.60;99.90;;;;;;6128212;23;19947;-80
2022/11/16 15:17:17;;;;;;;;;;;13.70;99.90;;;;;;6128711;23;20307;-78
2022/11/16 15:19:43;;;;;;;;;;;13.70;99.90;;;;;;6117750;23;20240;-80
2022/11/16 15:22:15;;;;;;;;;;;13.80;99.90;;;;;;6111707;23;19908;-78
2022/11/16 15:48:17;;;;;;;;;;;14.30;99.90;;;;;;6127309;23;19954;-79
2022/11/16 15:51:01;;;;;;;;;;;14.40;99.90;;;;;;6127405;23;19912;-77